Airfield :
LOGIN :

Register | Disclaimer

   EN    FR    IT 

 










Legend :    VFR   Marginal VFR   IFR   Intensive IFR   Very Intensive IFR
Visi :
Ceiling :
>= 8 km
>= 3000ft
5 to 8 km
1000 to 3000 ft
1500m to 5 km
500 to 1000 ft
800 to 1500m
200 to 500 ft
< 800m
< 200 ft
Symbols :   Thunderstorms  Fog  Heavy snow  Heavy precipitations  Wind > 20 kt
SIGMETs :     Misc.  Thunderstorms  Icing  Turbulence  Mountain Waves  Volcanic Ashes






- Airport Elevation : 616 ft
- IATA code : PUF


LFBP - Pau

CURRENT METAR :
  • 161100Z AUTO 34005KT 270V060 CAVOK 10/M00 Q1021 NOSIG

EXPIRED METARs :
  • 161030Z AUTO VRB06KT CAVOK 10/M02 Q1022 NOSIG
  • 161000Z AUTO 31006KT 260V040 CAVOK 09/M03 Q1022 NOSIG
  • 160930Z AUTO 32003KT 220V020 CAVOK 08/M01 Q1022 NOSIG
  • 160900Z AUTO VRB03KT CAVOK 08/M01 Q1022 NOSIG
  • 160830Z AUTO 28003KT 230V010 CAVOK 06/M02 Q1022 NOSIG

TAF TAF LFBP
Valid from the 16 at 06:00 until the 17 at 06:00 UTC


160500Z 1606/1706 VRB02KT CAVOK
BECMG 1610/1612 36010KT
BECMG 1619/1621 VRB02KT



MET'MAP, your aeronautical weather chart ! - Copyright ORBIFLY December 2007 - Disclaimer

ORBIFLY MET'MAP TEAM :

Programming & Development : Alexandra Zaïnal
Concept & original design : Baudouin d'Aumeries
Assistance for programming : Marc-Olivier Méhu
Technical & hardware support : Manuel Goepfert

Contact : metmap@orbifly.com




SOURCES & CREDITS :

   NOAA